KCLK/CLK METAR and TAF weather

Enter ICAO airport designator
Station Type Date Time Source
KCLK METAR 2021/07/24 21:15 UTC NOAA

KCLK 242115Z AUTO 20011G17KT 10SM CLR 36/15 A3000 RMK AO2


Station Type Date Time Source
KCLK Decoded METAR 2021/07/24 21:15 UTC NOAA

Clinton, Clinton Regional Airport, OK, United States (KCLK) 35-32-17N 098-55-17W
Jul 24, 2021 - 05:15 PM EDT / 2021.07.24 2115 UTC
Wind: from the SSW (200 degrees) at 13 MPH (11 KT) gusting to 20 MPH (17 KT):0
Visibility: 10 mile(s):0
Sky conditions: clear
Temperature: 96 F (36 C)
Heat index: 95.0 F (35.0 C):1
Dew Point: 59 F (15 C)
Relative Humidity: 28%
Pressure (altimeter): 30 in. Hg (1015 hPa)
ob: KCLK 242115Z AUTO 20011G17KT 10SM CLR 36/15 A3000 RMK AO2
cycle: 21

Station Type Date Time Source
KCLK TAF UTC NOAA

Error!

Example: see airport list